Time;durP1;ratioP1;P1;durP2;ratioP2;P2;SDS_P1;SDS_P2;PMS_P1;PMS_P2;Temp;Humidity;BMP_temperature;BMP_pressure;BME280_temperature;BME280_humidity;BME280_pressure;Samples;Min_cycle;Max_cycle;Signal;HPM_P1;HPM_P2
2023/05/04 00:01:53;;;;;;;;;;;;;;;;;;;;;
2023/05/04 00:05:54;;;;;;;7.20;4.23;;;1.40;99.90;;;;;;10262068;23;20182;-67
2023/05/04 00:14:29;;;;;;;7.27;4.70;;;1.30;99.90;;;;;;10252509;23;20284;-68
2023/05/04 00:18:37;;;;;;;8.60;4.43;;;1.20;99.90;;;;;;10235728;23;20190;-68
2023/05/04 00:22:44;;;;;;;8.37;4.43;;;1.10;99.90;;;;;;10235962;23;20232;-69
2023/05/04 00:26:48;;;;;;;6.77;4.73;;;1.00;1.00;;;;;;10233802;23;20168;-69
2023/05/04 00:35:40;;;;;;;5.97;4.40;;;0.90;1.00;;;;;;10262260;23;20209;-69
2023/05/04 00:39:43;;;;;;;6.07;4.13;;;0.80;1.00;;;;;;10232684;23;20243;-70
2023/05/04 00:44:08;;;;;;;7.67;4.50;;;0.80;1.00;;;;;;10235598;23;20168;-68
2023/05/04 00:48:42;;;;;;;5.17;3.70;;;0.70;43.10;;;;;;10240449;23;20239;-69
2023/05/04 00:52:50;;;;;;;7.43;4.73;;;0.70;99.90;;;;;;10258476;23;20165;-68
2023/05/04 00:56:52;;;;;;;5.60;3.90;;;0.70;99.90;;;;;;10258376;23;20152;-69
2023/05/04 01:01:10;;;;;;;8.80;4.30;;;0.60;99.90;;;;;;10234767;23;20165;-70
2023/05/04 01:09:52;;;;;;;7.97;4.00;;;0.50;99.90;;;;;;10011581;23;20167;-69
2023/05/04 01:13:59;;;;;;;6.73;5.03;;;0.50;99.90;;;;;;10012105;23;20201;-70
2023/05/04 01:18:41;;;;;;;8.57;4.60;;;0.40;99.90;;;;;;9997813;23;20159;-69
2023/05/04 01:23:07;;;;;;;6.47;4.23;;;0.40;99.90;;;;;;10121534;23;20174;-69
2023/05/04 01:28:02;;;;;;;8.77;4.57;;;0.30;99.90;;;;;;10253201;23;20168;-69
2023/05/04 01:32:43;;;;;;;;;;;;;;;;;;;;;
2023/05/04 01:37:09;;;;;;;;;;;;;;;;;;;;;
2023/05/04 01:41:16;;;;;;;5.90;4.23;;;0.10;1.00;;;;;;10203448;23;20165;-68
2023/05/04 01:45:39;;;;;;;6.57;4.10;;;0.10;1.00;;;;;;10182907;23;20282;-71
2023/05/04 01:50:05;;;;;;;8.17;4.83;;;0.00;1.00;;;;;;10179310;23;20165;-72
2023/05/04 01:54:26;;;;;;;7.47;4.73;;;0.00;4.80;;;;;;10179322;23;20168;-69
2023/05/04 01:58:33;;;;;;;5.97;4.00;;;-0.10;99.20;;;;;;10206466;23;20167;-70
2023/05/04 02:02:55;;;;;;;6.57;4.30;;;-0.10;99.90;;;;;;10208105;23;20203;-70
2023/05/04 02:11:32;;;;;;;6.60;4.60;;;-0.20;99.90;;;;;;10228154;23;20198;-70
2023/05/04 02:15:33;;;;;;;7.20;4.23;;;-0.20;1.00;;;;;;10258154;23;20168;-69
2023/05/04 02:19:52;;;;;;;7.47;4.37;;;-0.20;1.00;;;;;;10232872;23;20230;-69
2023/05/04 02:24:07;;;;;;;7.57;4.70;;;-0.20;1.00;;;;;;10231960;23;20242;-70
2023/05/04 02:28:23;;;;;;;7.93;4.53;;;-0.20;1.00;;;;;;10230679;23;20190;-70
2023/05/04 02:32:36;;;;;;;7.10;4.60;;;-0.30;1.00;;;;;;10227797;23;20162;-69
2023/05/04 02:36:46;;;;;;;7.47;4.37;;;-0.30;1.00;;;;;;10258537;23;20193;-69
2023/05/04 02:40:54;;;;;;;6.27;3.97;;;-0.40;1.00;;;;;;10231382;23;20320;-69
2023/05/04 02:45:20;;;;;;;5.73;4.17;;;-0.50;1.00;;;;;;10233205;23;20190;-70
2023/05/04 02:49:30;;;;;;;5.27;4.33;;;-0.50;1.00;;;;;;10215508;23;20201;-70
2023/05/04 02:53:43;;;;;;;8.93;4.83;;;-0.60;1.00;;;;;;10151257;23;20168;-70
2023/05/04 02:58:34;;;;;;;6.77;4.17;;;-0.70;93.20;;;;;;10130574;23;20171;-68
2023/05/04 03:03:09;;;;;;;6.03;4.20;;;-0.70;99.90;;;;;;10131016;23;20262;-69
2023/05/04 03:07:22;;;;;;;5.90;4.47;;;-0.70;99.90;;;;;;10126995;23;20183;-71
2023/05/04 03:11:26;;;;;;;8.10;3.70;;;-0.80;99.90;;;;;;10153796;23;20254;-70
2023/05/04 03:15:38;;;;;;;6.70;3.87;;;-0.80;1.00;;;;;;10154841;23;20155;-70
2023/05/04 03:19:56;;;;;;;5.53;3.93;;;-0.80;1.00;;;;;;10152127;23;20199;-69
2023/05/04 03:24:16;;;;;;;;;;;;;;;;;;;;;
2023/05/04 03:28:43;;;;;;;5.73;3.73;;;-0.80;99.90;;;;;;10259165;23;20150;-69
2023/05/04 03:32:57;;;;;;;6.87;4.23;;;-0.80;99.90;;;;;;10233338;23;20166;-69
2023/05/04 03:41:45;;;;;;;8.20;4.50;;;-0.70;1.00;;;;;;10263414;23;20158;-70
2023/05/04 03:46:05;;;;;;;7.40;4.67;;;-0.60;99.90;;;;;;10234434;23;20193;-70
2023/05/04 03:50:53;;;;;;;5.80;4.97;;;-0.50;1.00;;;;;;10256923;23;20171;-69
2023/05/04 03:54:55;;;;;;;9.93;5.80;;;-0.40;1.00;;;;;;10058663;23;20184;-69
2023/05/04 03:59:08;;;;;;;14.20;6.23;;;-0.30;1.00;;;;;;10143861;23;20178;-70
2023/05/04 04:03:30;;;;;;;9.33;6.27;;;-0.10;99.90;;;;;;10180599;23;20194;-69
2023/05/04 04:07:59;;;;;;;8.83;6.00;;;0.90;64.20;;;;;;10206721;23;20165;-69
2023/05/04 04:12:19;;;;;;;8.27;5.87;;;2.10;1.00;;;;;;10176207;23;20158;-70
2023/05/04 04:20:56;;;;;;;9.50;5.00;;;4.10;99.90;;;;;;10104058;23;20168;-69
2023/05/04 04:25:16;;;;;;;7.50;5.20;;;4.90;1.00;;;;;;10157228;23;20194;-69
2023/05/04 04:29:46;;;;;;;6.67;4.83;;;5.60;99.90;;;;;;10183523;23;20190;-68
2023/05/04 04:33:49;;;;;;;7.63;4.43;;;6.20;99.90;;;;;;10182201;23;20173;-69
2023/05/04 04:37:56;;;;;;;6.57;4.50;;;6.70;99.90;;;;;;10207986;23;20154;-68
2023/05/04 04:41:57;;;;;;;12.13;6.80;;;7.00;51.80;;;;;;10205923;23;20159;-68
2023/05/04 04:46:02;;;;;;;12.00;7.33;;;6.90;1.00;;;;;;10207925;23;20175;-67
2023/05/04 04:50:05;;;;;;;7.30;5.50;;;6.90;1.00;;;;;;10213392;23;20167;-69
2023/05/04 04:59:09;;;;;;;8.13;6.40;;;6.70;1.00;;;;;;10195974;23;20198;-69
2023/05/04 05:03:16;;;;;;;14.93;6.27;;;5.90;17.80;;;;;;10190917;23;20283;-68
2023/05/04 05:07:23;;;;;;;13.17;7.43;;;5.20;75.40;;;;;;10166461;23;20146;-67
2023/05/04 05:11:28;;;;;;;13.40;7.23;;;4.80;99.90;;;;;;10189514;23;20163;-69
2023/05/04 05:15:30;;;;;;;20.90;11.90;;;4.60;99.90;;;;;;10179074;23;20178;-69
2023/05/04 05:19:52;;;;;;;28.97;14.83;;;4.60;99.90;;;;;;10187428;23;20242;-70
2023/05/04 05:24:18;;;;;;;27.17;14.27;;;4.70;99.90;;;;;;10190904;23;20189;-69
2023/05/04 05:28:55;;;;;;;39.47;19.87;;;4.90;99.90;;;;;;10185638;23;20163;-69
2023/05/04 05:33:47;;;;;;;37.57;20.53;;;5.10;99.90;;;;;;10157884;23;20159;-69
2023/05/04 05:37:51;;;;;;;46.63;23.90;;;5.40;99.90;;;;;;10146718;23;20162;-69
2023/05/04 05:41:56;;;;;;;46.83;26.33;;;5.80;99.90;;;;;;10158575;23;20225;-68
2023/05/04 05:46:00;;;;;;;66.53;35.20;;;6.10;99.90;;;;;;10173675;23;20210;-69
2023/05/04 05:50:03;;;;;;;61.27;31.87;;;6.50;99.90;;;;;;10232997;23;20185;-67
2023/05/04 05:54:18;;;;;;;53.33;29.97;;;6.80;99.90;;;;;;10230279;23;20168;-67
2023/05/04 05:58:21;;;;;;;53.13;29.97;;;7.20;99.90;;;;;;10230290;23;20236;-67
2023/05/04 06:02:23;;;;;;;35.07;21.90;;;7.60;99.90;;;;;;10259081;23;20178;-67
2023/05/04 06:06:26;;;;;;;28.03;18.87;;;8.00;99.90;;;;;;10266137;23;20190;-67
2023/05/04 06:10:30;;;;;;;21.13;14.00;;;8.40;99.90;;;;;;10261151;23;20216;-68
2023/05/04 06:14:37;;;;;;;9.57;6.50;;;8.70;99.90;;;;;;10260241;23;20164;-68
2023/05/04 06:18:41;;;;;;;8.53;5.27;;;9.10;97.60;;;;;;10237187;23;20162;-67
2023/05/04 06:22:45;;;;;;;7.50;4.77;;;9.50;17.20;;;;;;10238216;23;20253;-67
2023/05/04 06:26:46;;;;;;;8.63;4.97;;;9.90;1.00;;;;;;10258549;23;20289;-67
2023/05/04 06:30:48;;;;;;;6.30;4.10;;;10.40;1.00;;;;;;10233392;23;20158;-68
2023/05/04 06:35:15;;;;;;;7.10;4.73;;;10.90;1.00;;;;;;10251671;23;20170;-68
2023/05/04 06:39:22;;;;;;;9.63;4.93;;;11.20;1.00;;;;;;10242103;23;20178;-68
2023/05/04 06:43:44;;;;;;;8.50;4.13;;;11.40;1.00;;;;;;10259680;23;20238;-67
2023/05/04 06:48:05;;;;;;;6.60;3.67;;;11.50;1.00;;;;;;10260092;23;20164;-70
2023/05/04 06:53:01;;;;;;;6.30;3.30;;;11.80;1.00;;;;;;10255915;23;20166;-67
2023/05/04 06:57:11;;;;;;;6.00;3.17;;;12.00;1.00;;;;;;10238210;23;20191;-67
2023/05/04 07:01:15;;;;;;;7.87;3.93;;;12.30;1.00;;;;;;10260912;23;20137;-68
2023/05/04 07:05:16;;;;;;;6.63;2.80;;;12.50;1.00;;;;;;10263782;23;20204;-67
2023/05/04 07:09:29;;;;;;;4.30;2.77;;;12.60;1.00;;;;;;10264129;23;20150;-67
2023/05/04 07:14:06;;;;;;;4.80;3.00;;;12.80;1.00;;;;;;10266564;23;20162;-65
2023/05/04 07:18:22;;;;;;;4.70;2.63;;;13.00;1.00;;;;;;10262961;23;20166;-66
2023/05/04 07:22:39;;;;;;;3.10;2.23;;;13.10;1.00;;;;;;10263963;23;20165;-67
2023/05/04 07:26:43;;;;;;;3.13;2.37;;;13.30;1.00;;;;;;10236559;23;20196;-68
2023/05/04 07:30:50;;;;;;;5.23;2.20;;;13.40;1.00;;;;;;10264015;23;20150;-67
2023/05/04 07:39:46;;;;;;;10.33;3.07;;;13.60;1.00;;;;;;10194281;23;20166;-67
2023/05/04 07:44:13;;;;;;;3.93;2.30;;;13.70;1.00;;;;;;10264868;23;20182;-66
2023/05/04 07:48:48;;;;;;;3.90;2.30;;;13.80;1.00;;;;;;10253024;23;20197;-66
2023/05/04 07:52:52;;;;;;;5.90;2.60;;;13.90;1.00;;;;;;10239920;23;20166;-67
2023/05/04 07:56:56;;;;;;;4.27;2.50;;;13.90;1.00;;;;;;10262655;23;20158;-70
2023/05/04 08:00:57;;;;;;;4.17;2.43;;;14.00;1.00;;;;;;10264006;23;20189;-66
2023/05/04 08:05:22;;;;;;;7.43;4.30;;;14.10;1.00;;;;;;10262676;23;20220;-66
2023/05/04 08:09:29;;;;;;;5.67;2.30;;;14.30;1.00;;;;;;10262819;23;20158;-65
2023/05/04 08:13:51;;;;;;;7.93;3.40;;;14.50;1.00;;;;;;10290019;23;20166;-69
2023/05/04 08:18:07;;;;;;;7.57;2.80;;;14.60;1.00;;;;;;10244652;23;20194;-69
2023/05/04 08:22:26;;;;;;;6.13;3.10;;;14.70;1.00;;;;;;10206038;23;20174;-65
2023/05/04 08:26:44;;;;;;;5.80;2.80;;;14.70;1.00;;;;;;10154023;23;20436;-67
2023/05/04 08:30:55;;;;;;;4.47;2.63;;;14.90;1.00;;;;;;10158468;23;20332;-66
2023/05/04 08:35:34;;;;;;;5.17;2.70;;;15.00;1.00;;;;;;10132496;23;20206;-63
2023/05/04 08:39:36;;;;;;;4.10;2.33;;;14.90;1.00;;;;;;10127696;23;20213;-66
2023/05/04 08:44:14;;;;;;;5.17;2.13;;;14.90;1.00;;;;;;10160616;23;20198;-64
2023/05/04 08:48:18;;;;;;;4.80;2.43;;;14.90;1.00;;;;;;10227425;23;20162;-66
2023/05/04 08:52:26;;;;;;;4.67;2.70;;;14.90;1.00;;;;;;10259979;23;20166;-66
2023/05/04 08:56:35;;;;;;;6.80;2.47;;;15.10;1.00;;;;;;10256702;23;20169;-65
2023/05/04 09:00:48;;;;;;;5.53;2.57;;;15.20;1.00;;;;;;10246966;23;20260;-67
2023/05/04 09:04:54;;;;;;;13.40;7.97;;;15.30;1.00;;;;;;10261585;23;20293;-65
2023/05/04 09:09:01;;;;;;;5.20;3.23;;;15.40;1.00;;;;;;10239673;23;20158;-66
2023/05/04 09:13:43;;;;;;;6.83;3.13;;;15.40;1.00;;;;;;10237966;23;20158;-65
2023/05/04 09:18:14;;;;;;;6.70;3.60;;;15.50;1.00;;;;;;10270960;23;20158;-65
2023/05/04 09:22:22;;;;;;;4.77;2.83;;;15.60;1.00;;;;;;10287049;23;20142;-65
2023/05/04 09:26:36;;;;;;;9.77;3.77;;;15.70;1.00;;;;;;10262462;23;20249;-66
2023/05/04 09:35:58;;;;;;;8.37;3.60;;;16.00;1.00;;;;;;10060283;23;20195;-67
2023/05/04 09:40:14;;;;;;;7.07;3.70;;;16.10;1.00;;;;;;10110385;23;20219;-67
2023/05/04 09:49:12;;;;;;;6.63;3.03;;;16.20;1.00;;;;;;10152970;23;20255;-67
2023/05/04 09:53:21;;;;;;;8.63;2.93;;;16.40;1.00;;;;;;10131735;23;20167;-64
2023/05/04 09:57:47;;;;;;;4.97;2.93;;;16.50;1.00;;;;;;10131971;23;20191;-66
2023/05/04 10:01:54;;;;;;;5.47;3.00;;;16.70;1.00;;;;;;10224269;23;20162;-66
2023/05/04 10:05:58;;;;;;;4.70;3.03;;;16.90;1.00;;;;;;10262613;23;20205;-62
2023/05/04 10:10:23;;;;;;;4.23;2.87;;;17.00;1.00;;;;;;10259604;23;20153;-67
2023/05/04 10:14:55;;;;;;;3.70;2.27;;;17.00;1.00;;;;;;10263108;23;20162;-66
2023/05/04 10:19:36;;;;;;;7.77;2.53;;;17.10;1.00;;;;;;10259453;23;20169;-69
2023/05/04 10:24:17;;;;;;;8.00;2.83;;;17.20;1.00;;;;;;10260634;23;20232;-67
2023/05/04 10:29:04;;;;;;;5.00;2.43;;;17.10;1.00;;;;;;10203722;23;20257;-65
2023/05/04 10:38:49;;;;;;;6.40;3.20;;;17.40;1.00;;;;;;10209423;23;20244;-68
2023/05/04 10:43:27;;;;;;;7.30;2.70;;;17.60;1.00;;;;;;10183200;23;20174;-67
2023/05/04 10:47:46;;;;;;;6.53;2.80;;;17.60;1.00;;;;;;10206886;23;20177;-65
2023/05/04 10:51:47;;;;;;;4.13;2.37;;;17.50;1.00;;;;;;10210183;23;20237;-65
2023/05/04 10:56:19;;;;;;;4.97;2.80;;;17.50;1.00;;;;;;10182790;23;20159;-66
2023/05/04 11:00:50;;;;;;;4.80;2.50;;;17.50;1.00;;;;;;10251116;23;20162;-64
2023/05/04 11:05:30;;;;;;;5.23;2.77;;;17.50;1.00;;;;;;10189905;23;20206;-67
2023/05/04 11:09:41;;;;;;;15.13;3.30;;;17.50;1.00;;;;;;10157994;23;20166;-65
2023/05/04 11:13:46;;;;;;;3.57;2.50;;;17.60;1.00;;;;;;10255309;23;20236;-66
2023/05/04 11:17:57;;;;;;;7.23;2.63;;;17.60;1.00;;;;;;10207862;23;20166;-65
2023/05/04 11:22:12;;;;;;;5.93;2.20;;;17.60;1.00;;;;;;10209795;23;20250;-67
2023/05/04 11:26:46;;;;;;;3.90;2.40;;;17.70;1.00;;;;;;10187538;23;20225;-65
2023/05/04 11:31:27;;;;;;;4.87;2.23;;;17.80;1.00;;;;;;10172069;23;20201;-65
2023/05/04 11:35:47;;;;;;;5.83;2.40;;;17.90;1.00;;;;;;10208072;23;20163;-66
2023/05/04 11:40:03;;;;;;;7.17;2.03;;;17.90;1.00;;;;;;10183124;23;20162;-63
2023/05/04 11:44:05;;;;;;;5.03;2.30;;;17.90;1.00;;;;;;10182610;23;20182;-67
2023/05/04 11:48:47;;;;;;;4.93;2.17;;;18.00;1.00;;;;;;10187008;23;20162;-66
2023/05/04 11:53:23;;;;;;;7.27;2.27;;;18.10;1.00;;;;;;10214451;23;20162;-66
2023/05/04 11:57:56;;;;;;;4.37;2.33;;;18.20;1.00;;;;;;10261140;23;20150;-64
2023/05/04 12:02:19;;;;;;;3.80;1.93;;;18.30;1.00;;;;;;10252518;23;20169;-65
2023/05/04 12:07:15;;;;;;;4.83;2.17;;;18.50;1.00;;;;;;10237113;23;20205;-65
2023/05/04 12:12:00;;;;;;;6.67;2.93;;;18.70;1.00;;;;;;10133703;23;20167;-65
2023/05/04 12:16:20;;;;;;;2.80;1.73;;;18.80;1.00;;;;;;10157882;23;20159;-65
2023/05/04 12:20:36;;;;;;;3.10;1.83;;;18.70;1.00;;;;;;10198047;23;20170;-67
2023/05/04 12:24:59;;;;;;;4.60;2.10;;;18.90;1.00;;;;;;10263758;23;20229;-69
2023/05/04 12:33:37;;;;;;;4.70;1.47;;;18.90;1.00;;;;;;10251995;23;20174;-66
2023/05/04 12:37:59;;;;;;;4.43;1.87;;;19.20;1.00;;;;;;10235981;23;20154;-66
2023/05/04 12:46:37;;;;;;;4.40;2.17;;;19.30;1.00;;;;;;10233094;23;20225;-66
2023/05/04 12:50:56;;;;;;;4.30;2.13;;;19.30;1.00;;;;;;10237819;23;20225;-65
2023/05/04 12:55:21;;;;;;;4.80;2.10;;;19.30;1.00;;;;;;10251826;23;20147;-66
2023/05/04 13:00:05;;;;;;;5.00;2.03;;;19.50;1.00;;;;;;10260335;23;20161;-65
2023/05/04 13:04:09;;;;;;;3.73;1.80;;;19.30;1.00;;;;;;10263037;22;20198;-65
2023/05/04 13:08:43;;;;;;;5.73;2.03;;;19.30;1.00;;;;;;10261509;23;20190;-67
2023/05/04 13:13:28;;;;;;;4.43;1.60;;;19.30;1.00;;;;;;10281292;23;20182;-67
2023/05/04 13:22:58;;;;;;;4.87;2.53;;;19.70;1.00;;;;;;10238028;23;20165;-69
2023/05/04 13:27:14;;;;;;;6.90;3.37;;;19.90;1.00;;;;;;10260934;23;20252;-66
2023/05/04 13:31:31;;;;;;;4.77;1.90;;;19.80;1.00;;;;;;10249315;23;20162;-65
2023/05/04 13:35:56;;;;;;;4.23;2.20;;;19.80;1.00;;;;;;10258205;23;20154;-67
2023/05/04 13:39:58;;;;;;;1.57;1.30;;;20.00;1.00;;;;;;10256929;23;20173;-65
2023/05/04 13:44:08;;;;;;;5.53;2.37;;;20.00;1.00;;;;;;10261356;23;20181;-65
2023/05/04 13:48:12;;;;;;;4.50;1.97;;;20.20;1.00;;;;;;10263987;23;20193;-63
2023/05/04 13:52:19;;;;;;;5.07;1.80;;;20.20;1.00;;;;;;10256235;23;20241;-66
2023/05/04 13:56:23;;;;;;;2.90;1.90;;;20.20;1.00;;;;;;10237992;23;20142;-67
2023/05/04 14:00:31;;;;;;;5.30;2.03;;;20.40;1.00;;;;;;10237881;23;20271;-68
2023/05/04 14:04:49;;;;;;;3.53;1.53;;;20.60;1.00;;;;;;10288491;22;20253;-66
2023/05/04 14:08:50;;;;;;;4.47;2.07;;;20.70;1.00;;;;;;10238160;23;20180;-67
2023/05/04 14:13:00;;;;;;;5.03;2.70;;;20.90;1.00;;;;;;10241342;23;20186;-63
2023/05/04 14:17:11;;;;;;;2.63;2.00;;;20.90;1.00;;;;;;10238383;23;20252;-67
2023/05/04 14:21:16;;;;;;;3.73;1.93;;;20.70;1.00;;;;;;10206354;23;20234;-65
2023/05/04 14:25:21;;;;;;;5.00;2.00;;;20.80;1.00;;;;;;10184994;23;20257;-65
2023/05/04 14:33:38;;;;;;;4.47;2.00;;;20.80;1.00;;;;;;10207706;23;20176;-66
2023/05/04 14:37:39;;;;;;;4.60;2.23;;;20.80;1.00;;;;;;10179696;23;20163;-67
2023/05/04 14:41:51;;;;;;;3.50;2.20;;;20.80;1.00;;;;;;10178688;23;20198;-67
2023/05/04 14:46:05;;;;;;;3.67;2.17;;;20.80;1.00;;;;;;10181577;23;20166;-66
2023/05/04 14:55:59;;;;;;;2.47;1.70;;;21.10;1.00;;;;;;10192902;23;20267;-67
2023/05/04 15:00:18;;;;;;;4.10;2.33;;;21.00;1.00;;;;;;10254906;23;20189;-66
2023/05/04 15:04:25;;;;;;;6.13;2.30;;;21.00;1.00;;;;;;10235401;23;20259;-67
2023/05/04 15:08:48;;;;;;;5.23;4.20;;;20.80;1.00;;;;;;10254044;23;20165;-69
2023/05/04 15:12:58;;;;;;;5.13;2.53;;;20.60;1.00;;;;;;10235321;23;20185;-64
2023/05/04 15:17:02;;;;;;;3.77;2.23;;;20.40;1.00;;;;;;10287080;23;20178;-66
2023/05/04 15:21:10;;;;;;;2.63;2.40;;;20.10;1.00;;;;;;10236810;23;20158;-67
2023/05/04 15:25:14;;;;;;;4.13;2.13;;;20.10;1.00;;;;;;10262929;23;20228;-66
2023/05/04 15:29:39;;;;;;;3.57;2.30;;;20.00;1.00;;;;;;10247748;23;20162;-67
2023/05/04 15:33:56;;;;;;;4.23;1.97;;;20.00;1.00;;;;;;10259672;23;20150;-65
2023/05/04 15:38:06;;;;;;;3.87;2.03;;;19.90;1.00;;;;;;10264291;23;20233;-67
2023/05/04 15:46:40;;;;;;;6.37;2.50;;;19.60;1.00;;;;;;10264959;23;20189;-66
2023/05/04 15:56:16;;;;;;;2.30;1.50;;;19.50;1.00;;;;;;10245196;23;20197;-67
2023/05/04 16:00:21;;;;;;;4.30;2.20;;;19.30;1.00;;;;;;10256007;23;20239;-65
2023/05/04 16:04:27;;;;;;;5.57;1.70;;;19.30;1.00;;;;;;10249618;23;20231;-66
2023/05/04 16:08:40;;;;;;;5.37;2.80;;;19.10;1.00;;;;;;10229319;23;20224;-66
2023/05/04 16:12:53;;;;;;;3.13;2.57;;;18.90;1.00;;;;;;10230462;23;20169;-68
2023/05/04 16:16:54;;;;;;;4.77;2.60;;;18.80;1.00;;;;;;10230342;23;20283;-66
2023/05/04 16:21:01;;;;;;;3.13;2.20;;;18.60;1.00;;;;;;10204026;23;20166;-66
2023/05/04 16:25:20;;;;;;;4.57;2.43;;;18.60;1.00;;;;;;10231618;23;20162;-66
2023/05/04 16:39:18;;;;;;;3.40;2.40;;;18.40;1.00;;;;;;10207701;23;20217;-65
2023/05/04 16:43:19;;;;;;;4.53;2.50;;;18.30;1.00;;;;;;10208465;23;20163;-65
2023/05/04 16:52:22;;;;;;;;;;;;;;;;;;;;;
2023/05/04 16:56:24;;;;;;;2.67;1.80;;;18.00;1.00;;;;;;10110968;23;20179;-66
2023/05/04 17:00:30;;;;;;;3.13;2.00;;;17.90;1.00;;;;;;10177898;23;20170;-65
2023/05/04 17:04:50;;;;;;;3.77;2.10;;;17.80;1.00;;;;;;10210361;23;20190;-67
2023/05/04 17:09:09;;;;;;;3.20;1.97;;;17.70;1.00;;;;;;10207006;23;20273;-66
2023/05/04 17:13:13;;;;;;;2.60;2.07;;;17.50;1.00;;;;;;10208100;23;20170;-66
2023/05/04 17:17:17;;;;;;;6.00;2.20;;;17.30;1.00;;;;;;10207156;23;20280;-67
2023/05/04 17:21:36;;;;;;;3.77;2.20;;;17.10;1.00;;;;;;10181759;23;20162;-68
2023/05/04 17:26:04;;;;;;;2.53;1.97;;;16.90;1.00;;;;;;10184177;23;20335;-66
2023/05/04 17:30:16;;;;;;;4.33;2.27;;;16.80;1.00;;;;;;10178638;23;20166;-67
2023/05/04 17:34:41;;;;;;;4.37;2.00;;;16.60;1.00;;;;;;10179892;23;20190;-68
2023/05/04 17:38:45;;;;;;;2.50;1.77;;;16.50;1.00;;;;;;10066050;23;20176;-65
2023/05/04 17:43:27;;;;;;;4.27;1.93;;;16.40;1.00;;;;;;10058696;23;20157;-66
2023/05/04 17:47:42;;;;;;;5.67;2.47;;;16.20;1.00;;;;;;9873976;24;20171;-66
2023/05/04 17:52:00;;;;;;;2.53;1.80;;;16.00;1.00;;;;;;9969954;23;20165;-66
2023/05/04 17:56:56;;;;;;;2.53;1.90;;;15.80;1.00;;;;;;10135969;23;20247;-66
2023/05/04 18:01:32;;;;;;;2.53;1.50;;;15.60;1.00;;;;;;10133387;23;20199;-67
2023/05/04 18:05:44;;;;;;;2.20;1.60;;;15.30;1.00;;;;;;10015528;23;20189;-67
2023/05/04 18:09:57;;;;;;;3.00;1.90;;;15.10;1.00;;;;;;10059416;23;20250;-68
2023/05/04 18:13:58;;;;;;;6.47;2.60;;;14.90;1.00;;;;;;10173518;23;20221;-69
2023/05/04 18:18:06;;;;;;;3.90;2.17;;;14.60;1.00;;;;;;10207172;23;20178;-67
2023/05/04 18:23:08;;;;;;;3.30;2.30;;;14.40;1.00;;;;;;10203707;23;20159;-67
2023/05/04 18:27:21;;;;;;;4.27;2.80;;;14.10;1.00;;;;;;10190716;23;20190;-67
2023/05/04 18:31:22;;;;;;;3.77;2.07;;;13.90;1.00;;;;;;10206557;23;20173;-67
2023/05/04 18:35:41;;;;;;;3.37;1.73;;;13.70;1.00;;;;;;10226575;23;20186;-68
2023/05/04 18:39:51;;;;;;;2.70;1.60;;;13.50;1.00;;;;;;10210261;23;20218;-66
2023/05/04 18:44:08;;;;;;;3.00;1.60;;;13.20;1.00;;;;;;10188463;23;20214;-68
2023/05/04 18:48:21;;;;;;;3.60;2.20;;;13.00;1.00;;;;;;10211664;23;20218;-69
2023/05/04 18:52:29;;;;;;;3.37;2.00;;;12.90;1.00;;;;;;10189019;22;20202;-68
2023/05/04 18:56:33;;;;;;;4.93;2.20;;;12.80;1.00;;;;;;10216171;23;20190;-67
2023/05/04 19:00:41;;;;;;;2.40;1.90;;;12.70;1.00;;;;;;10211130;23;20205;-67
2023/05/04 19:04:45;;;;;;;3.90;1.50;;;12.60;1.00;;;;;;10216830;23;20189;-68
2023/05/04 19:09:44;;;;;;;2.93;1.70;;;12.50;1.00;;;;;;10216557;23;20194;-68
2023/05/04 19:13:54;;;;;;;3.10;2.30;;;12.40;1.00;;;;;;10220712;23;20206;-67
2023/05/04 19:18:01;;;;;;;5.30;2.90;;;12.30;1.00;;;;;;10215476;23;20221;-67
2023/05/04 19:22:14;;;;;;;3.97;2.90;;;12.20;1.00;;;;;;10209937;23;20171;-68
2023/05/04 19:26:21;;;;;;;3.80;3.00;;;12.10;1.00;;;;;;10209862;23;20167;-67
2023/05/04 19:30:22;;;;;;;4.03;3.03;;;11.90;1.00;;;;;;10210647;23;20193;-67
2023/05/04 19:34:45;;;;;;;;;;;;;;;;;;;;;
2023/05/04 19:39:30;;;;;;;2.40;1.70;;;11.50;1.00;;;;;;10209205;23;20170;-67
2023/05/04 19:43:47;;;;;;;3.20;2.10;;;11.40;1.00;;;;;;10206227;23;20206;-68
2023/05/04 19:48:17;;;;;;;4.00;1.90;;;11.20;1.00;;;;;;10209184;23;20168;-67
2023/05/04 19:57:18;;;;;;;5.10;4.40;;;11.00;1.00;;;;;;10142840;23;20222;-67
2023/05/04 20:01:19;;;;;;;43.20;38.87;;;10.90;1.00;;;;;;10207534;23;20177;-68
2023/05/04 20:05:23;;;;;;;28.53;25.73;;;10.90;1.00;;;;;;10210936;23;20254;-68
2023/05/04 20:09:32;;;;;;;7.57;5.07;;;10.80;1.00;;;;;;10208150;23;20165;-68
2023/05/04 20:13:41;;;;;;;5.07;4.17;;;10.60;1.00;;;;;;10209857;23;20150;-67
2023/05/04 20:17:42;;;;;;;3.60;3.17;;;10.40;1.00;;;;;;10208037;23;20190;-67
2023/05/04 20:22:00;;;;;;;2.93;2.60;;;10.30;1.00;;;;;;10208946;23;20186;-67
2023/05/04 20:30:39;;;;;;;3.50;2.00;;;10.10;1.00;;;;;;10209280;23;20201;-67
2023/05/04 20:35:09;;;;;;;2.83;2.17;;;10.00;1.00;;;;;;10208275;23;20222;-68
2023/05/04 20:39:29;;;;;;;5.03;2.90;;;9.90;1.00;;;;;;10230372;23;20167;-69
2023/05/04 20:48:17;;;;;;;3.53;2.83;;;9.70;1.00;;;;;;10206836;23;20226;-68
2023/05/04 20:52:30;;;;;;;3.10;2.03;;;9.70;1.00;;;;;;10206807;23;20246;-67
2023/05/04 20:56:32;;;;;;;3.30;2.50;;;9.60;1.00;;;;;;10204785;23;20178;-68
2023/05/04 21:00:49;;;;;;;;;;;;;;;;;;;;;
2023/05/04 21:05:34;;;;;;;3.73;2.70;;;9.30;1.00;;;;;;10208433;23;20278;-69
2023/05/04 21:09:32;;;;;;;3.40;2.43;;;9.30;1.00;;;;;;10206997;23;20171;-67
2023/05/04 21:13:40;;;;;;;3.63;2.77;;;9.20;1.00;;;;;;10208912;23;20202;-68
2023/05/04 21:18:10;;;;;;;3.27;2.33;;;9.10;1.00;;;;;;10211974;23;20182;-68
2023/05/04 21:22:32;;;;;;;4.23;2.60;;;9.00;1.00;;;;;;10208458;23;20158;-68
2023/05/04 21:26:36;;;;;;;4.33;2.70;;;8.90;1.00;;;;;;10212549;23;20228;-67
2023/05/04 21:30:59;;;;;;;5.67;3.63;;;8.80;2.40;;;;;;10209178;23;20167;-67
2023/05/04 21:35:06;;;;;;;7.43;4.73;;;8.70;5.60;;;;;;10209006;23;20174;-69
2023/05/04 21:39:50;;;;;;;;;;;;;;;;;;;;;
2023/05/04 21:44:15;;;;;;;6.60;3.70;;;8.60;14.60;;;;;;10207956;23;20167;-69
2023/05/04 21:48:15;;;;;;;5.07;3.80;;;8.50;15.60;;;;;;10214774;23;20166;-68
2023/05/04 21:52:28;;;;;;;4.33;3.13;;;8.40;21.50;;;;;;10211352;23;20197;-69
2023/05/04 21:56:35;;;;;;;5.37;3.67;;;8.20;29.80;;;;;;10207488;23;20198;-67
2023/05/04 22:00:47;;;;;;;4.57;3.23;;;8.10;44.60;;;;;;10207335;23;20253;-67
2023/05/04 22:09:53;;;;;;;3.87;3.47;;;7.90;79.40;;;;;;10211910;23;20273;-68
2023/05/04 22:14:04;;;;;;;4.43;3.60;;;7.80;92.00;;;;;;10003176;23;20264;-67
2023/05/04 22:18:26;;;;;;;5.60;3.43;;;7.70;97.10;;;;;;10124189;23;20163;-67
2023/05/04 22:22:32;;;;;;;6.10;3.73;;;7.60;99.90;;;;;;10211313;23;20158;-68
2023/05/04 22:26:37;;;;;;;4.47;3.27;;;7.50;99.90;;;;;;10153850;23;20159;-67
2023/05/04 22:30:38;;;;;;;5.33;3.73;;;7.40;99.90;;;;;;10154950;23;20242;-67
2023/05/04 22:34:45;;;;;;;4.30;3.37;;;7.30;99.90;;;;;;10156228;23;20184;-69
2023/05/04 22:39:05;;;;;;;5.03;3.80;;;7.10;99.90;;;;;;10129906;23;20163;-70
2023/05/04 22:43:09;;;;;;;5.10;3.53;;;7.00;99.90;;;;;;10129905;23;20167;-68
2023/05/04 22:47:10;;;;;;;6.50;3.93;;;6.90;99.90;;;;;;10153951;23;20191;-70
2023/05/04 22:51:43;;;;;;;8.20;4.67;;;6.80;99.90;;;;;;10191690;23;20175;-68
2023/05/04 22:55:44;;;;;;;6.30;3.90;;;6.70;99.90;;;;;;10207679;23;20206;-68
2023/05/04 22:59:55;;;;;;;7.47;4.70;;;6.70;99.90;;;;;;10210244;23;20221;-69
2023/05/04 23:04:20;;;;;;;7.97;5.23;;;6.60;99.90;;;;;;10236622;23;20189;-68
2023/05/04 23:08:31;;;;;;;6.87;4.67;;;6.50;99.90;;;;;;10213983;23;20198;-69
2023/05/04 23:12:55;;;;;;;6.97;3.73;;;6.40;99.90;;;;;;10212423;23;20159;-70
2023/05/04 23:16:56;;;;;;;7.10;4.77;;;6.30;99.90;;;;;;10189244;23;20194;-68
2023/05/04 23:25:31;;;;;;;6.37;3.70;;;6.20;99.90;;;;;;10191228;23;20178;-67
2023/05/04 23:29:35;;;;;;;6.37;4.03;;;6.10;99.90;;;;;;10207587;23;20167;-69
2023/05/04 23:33:45;;;;;;;4.97;4.17;;;6.10;99.90;;;;;;10232554;23;20228;-68
2023/05/04 23:37:47;;;;;;;6.20;4.10;;;6.10;99.90;;;;;;10207922;23;20143;-68
2023/05/04 23:42:09;;;;;;;9.73;4.67;;;6.10;99.90;;;;;;10212045;23;20194;-68
2023/05/04 23:46:37;;;;;;;7.87;5.00;;;6.10;99.90;;;;;;10211318;23;20150;-68
2023/05/04 23:50:51;;;;;;;;;;;;;;;;;;;;;
2023/05/04 23:55:00;;;;;;;10.23;6.87;;;6.20;99.90;;;;;;10211056;23;20171;-68
2023/05/04 23:59:13;;;;;;;10.07;6.50;;;6.20;99.90;;;;;;10212191;23;20272;-68
